sensor_id;sensor_type;location;lat;lon;timestamp;P1;durP1;ratioP1;P2;durP2;ratioP2
55025;SDS011;40925;45.666;18.994;2022-12-18T00:01:42;59.78;;;25.77;;
55025;SDS011;40925;45.666;18.994;2022-12-18T00:04:14;57.08;;;24.40;;
55025;SDS011;40925;45.666;18.994;2022-12-18T00:09:18;56.60;;;24.27;;
55025;SDS011;40925;45.666;18.994;2022-12-18T00:11:57;80.53;;;34.25;;
55025;SDS011;40925;45.666;18.994;2022-12-18T00:14:36;51.38;;;23.02;;
55025;SDS011;40925;45.666;18.994;2022-12-18T00:17:03;57.17;;;25.75;;
55025;SDS011;40925;45.666;18.994;2022-12-18T00:19:57;57.83;;;24.83;;
55025;SDS011;40925;45.666;18.994;2022-12-18T00:29:17;55.13;;;23.83;;
55025;SDS011;40925;45.666;18.994;2022-12-18T00:34:25;58.42;;;23.63;;
55025;SDS011;40925;45.666;18.994;2022-12-18T00:39:30;56.05;;;24.40;;
55025;SDS011;40925;45.666;18.994;2022-12-18T00:46:21;51.05;;;21.92;;
55025;SDS011;40925;45.666;18.994;2022-12-18T00:48:53;53.05;;;22.65;;
55025;SDS011;40925;45.666;18.994;2022-12-18T00:54:05;53.65;;;22.08;;
55025;SDS011;40925;45.666;18.994;2022-12-18T01:00:13;53.53;;;22.23;;
55025;SDS011;40925;45.666;18.994;2022-12-18T01:02:52;53.58;;;22.30;;
55025;SDS011;40925;45.666;18.994;2022-12-18T01:05:19;50.08;;;22.67;;
55025;SDS011;40925;45.666;18.994;2022-12-18T01:07:48;54.00;;;23.02;;
55025;SDS011;40925;45.666;18.994;2022-12-18T01:10:39;52.03;;;22.65;;
55025;SDS011;40925;45.666;18.994;2022-12-18T01:13:08;54.17;;;23.10;;
55025;SDS011;40925;45.666;18.994;2022-12-18T01:18:31;55.78;;;24.05;;
55025;SDS011;40925;45.666;18.994;2022-12-18T01:20:59;54.95;;;23.83;;
55025;SDS011;40925;45.666;18.994;2022-12-18T01:23:37;55.85;;;23.67;;
55025;SDS011;40925;45.666;18.994;2022-12-18T01:29:00;56.17;;;23.45;;
55025;SDS011;40925;45.666;18.994;2022-12-18T01:31:45;55.28;;;22.70;;
55025;SDS011;40925;45.666;18.994;2022-12-18T01:34:14;58.03;;;23.65;;
55025;SDS011;40925;45.666;18.994;2022-12-18T01:36:40;52.65;;;23.23;;
55025;SDS011;40925;45.666;18.994;2022-12-18T01:39:26;58.95;;;23.92;;
55025;SDS011;40925;45.666;18.994;2022-12-18T01:42:24;57.97;;;24.08;;
55025;SDS011;40925;45.666;18.994;2022-12-18T01:45:39;51.67;;;22.83;;
55025;SDS011;40925;45.666;18.994;2022-12-18T01:48:22;57.65;;;23.63;;
55025;SDS011;40925;45.666;18.994;2022-12-18T01:50:55;57.15;;;23.77;;
55025;SDS011;40925;45.666;18.994;2022-12-18T01:53:52;53.45;;;23.60;;
55025;SDS011;40925;45.666;18.994;2022-12-18T01:56:33;58.15;;;24.23;;
55025;SDS011;40925;45.666;18.994;2022-12-18T01:59:35;56.33;;;24.10;;
55025;SDS011;40925;45.666;18.994;2022-12-18T02:05:06;59.30;;;24.50;;
55025;SDS011;40925;45.666;18.994;2022-12-18T02:14:13;56.78;;;23.92;;
55025;SDS011;40925;45.666;18.994;2022-12-18T02:17:06;57.53;;;24.48;;
55025;SDS011;40925;45.666;18.994;2022-12-18T02:20:53;54.65;;;23.15;;
55025;SDS011;40925;45.666;18.994;2022-12-18T02:31:01;56.75;;;23.55;;
55025;SDS011;40925;45.666;18.994;2022-12-18T02:33:47;53.58;;;23.75;;
55025;SDS011;40925;45.666;18.994;2022-12-18T02:45:17;56.13;;;23.23;;
55025;SDS011;40925;45.666;18.994;2022-12-18T02:50:48;55.78;;;24.02;;
55025;SDS011;40925;45.666;18.994;2022-12-18T04:47:02;181.52;;;59.13;;
55025;SDS011;40925;45.666;18.994;2022-12-18T04:50:25;109.20;;;41.42;;
55025;SDS011;40925;45.666;18.994;2022-12-18T05:03:46;100.50;;;43.00;;
55025;SDS011;40925;45.666;18.994;2022-12-18T05:17:15;61.50;;;25.60;;
55025;SDS011;40925;45.666;18.994;2022-12-18T05:19:51;61.97;;;25.90;;
55025;SDS011;40925;45.666;18.994;2022-12-18T05:22:50;61.78;;;27.52;;
55025;SDS011;40925;45.666;18.994;2022-12-18T05:31:18;67.85;;;28.88;;
55025;SDS011;40925;45.666;18.994;2022-12-18T05:33:50;61.05;;;25.90;;
55025;SDS011;40925;45.666;18.994;2022-12-18T05:36:45;66.30;;;27.90;;
55025;SDS011;40925;45.666;18.994;2022-12-18T05:39:19;64.30;;;27.48;;
55025;SDS011;40925;45.666;18.994;2022-12-18T05:47:51;63.78;;;26.88;;
55025;SDS011;40925;45.666;18.994;2022-12-18T05:50:41;63.90;;;26.58;;
55025;SDS011;40925;45.666;18.994;2022-12-18T05:53:26;64.53;;;26.17;;
55025;SDS011;40925;45.666;18.994;2022-12-18T05:56:27;60.08;;;26.73;;
55025;SDS011;40925;45.666;18.994;2022-12-18T05:59:00;66.03;;;29.23;;
55025;SDS011;40925;45.666;18.994;2022-12-18T06:01:33;72.80;;;31.57;;
55025;SDS011;40925;45.666;18.994;2022-12-18T06:04:00;70.72;;;30.70;;
55025;SDS011;40925;45.666;18.994;2022-12-18T06:06:40;71.03;;;30.60;;
55025;SDS011;40925;45.666;18.994;2022-12-18T06:09:08;76.75;;;31.25;;
55025;SDS011;40925;45.666;18.994;2022-12-18T06:11:35;79.78;;;33.47;;
55025;SDS011;40925;45.666;18.994;2022-12-18T06:16:38;134.00;;;55.25;;
55025;SDS011;40925;45.666;18.994;2022-12-18T06:19:07;110.05;;;49.67;;
55025;SDS011;40925;45.666;18.994;2022-12-18T06:21:35;122.60;;;56.63;;
55025;SDS011;40925;45.666;18.994;2022-12-18T06:24:07;102.80;;;47.53;;
55025;SDS011;40925;45.666;18.994;2022-12-18T06:26:37;106.47;;;49.13;;
55025;SDS011;40925;45.666;18.994;2022-12-18T06:29:08;93.53;;;43.13;;
55025;SDS011;40925;45.666;18.994;2022-12-18T06:31:46;80.07;;;35.05;;
55025;SDS011;40925;45.666;18.994;2022-12-18T06:34:19;85.65;;;36.25;;
55025;SDS011;40925;45.666;18.994;2022-12-18T06:37:07;86.88;;;37.33;;
55025;SDS011;40925;45.666;18.994;2022-12-18T06:39:35;85.18;;;36.45;;
55025;SDS011;40925;45.666;18.994;2022-12-18T06:45:11;94.53;;;37.05;;
55025;SDS011;40925;45.666;18.994;2022-12-18T06:48:04;83.90;;;33.43;;
55025;SDS011;40925;45.666;18.994;2022-12-18T06:50:33;83.82;;;34.80;;
55025;SDS011;40925;45.666;18.994;2022-12-18T06:53:04;84.82;;;35.67;;
55025;SDS011;40925;45.666;18.994;2022-12-18T07:02:02;84.07;;;33.72;;
55025;SDS011;40925;45.666;18.994;2022-12-18T07:05:11;81.13;;;33.33;;
55025;SDS011;40925;45.666;18.994;2022-12-18T07:08:03;163.65;;;62.70;;
55025;SDS011;40925;45.666;18.994;2022-12-18T07:16:12;192.50;;;73.53;;
55025;SDS011;40925;45.666;18.994;2022-12-18T07:18:41;206.07;;;75.15;;
55025;SDS011;40925;45.666;18.994;2022-12-18T07:21:25;170.70;;;59.45;;
55025;SDS011;40925;45.666;18.994;2022-12-18T07:23:57;139.68;;;51.13;;
55025;SDS011;40925;45.666;18.994;2022-12-18T07:33:00;103.95;;;40.60;;
55025;SDS011;40925;45.666;18.994;2022-12-18T07:35:26;98.43;;;38.22;;
55025;SDS011;40925;45.666;18.994;2022-12-18T07:38:03;121.97;;;45.25;;
55025;SDS011;40925;45.666;18.994;2022-12-18T07:40:38;119.18;;;42.90;;
55025;SDS011;40925;45.666;18.994;2022-12-18T07:43:29;233.63;;;66.60;;
55025;SDS011;40925;45.666;18.994;2022-12-18T07:46:10;163.85;;;51.00;;
55025;SDS011;40925;45.666;18.994;2022-12-18T07:49:03;150.95;;;49.60;;
55025;SDS011;40925;45.666;18.994;2022-12-18T07:54:36;124.80;;;45.40;;
55025;SDS011;40925;45.666;18.994;2022-12-18T08:07:30;129.35;;;48.35;;
55025;SDS011;40925;45.666;18.994;2022-12-18T08:21:55;75.13;;;30.75;;
55025;SDS011;40925;45.666;18.994;2022-12-18T08:50:37;106.82;;;45.22;;
55025;SDS011;40925;45.666;18.994;2022-12-18T09:06:19;48.33;;;22.42;;
55025;SDS011;40925;45.666;18.994;2022-12-18T09:09:33;52.03;;;23.35;;
55025;SDS011;40925;45.666;18.994;2022-12-18T09:12:28;43.67;;;19.45;;
55025;SDS011;40925;45.666;18.994;2022-12-18T16:00:02;93.60;;;39.65;;
55025;SDS011;40925;45.666;18.994;2022-12-18T17:02:12;208.80;;;87.28;;
55025;SDS011;40925;45.666;18.994;2022-12-18T17:04:58;186.20;;;84.03;;
55025;SDS011;40925;45.666;18.994;2022-12-18T17:08:13;176.48;;;81.90;;
55025;SDS011;40925;45.666;18.994;2022-12-18T17:11:11;159.50;;;69.82;;
55025;SDS011;40925;45.666;18.994;2022-12-18T17:19:42;189.50;;;66.10;;
55025;SDS011;40925;45.666;18.994;2022-12-18T17:22:39;158.40;;;48.80;;
55025;SDS011;40925;45.666;18.994;2022-12-18T17:26:09;145.63;;;67.28;;
55025;SDS011;40925;45.666;18.994;2022-12-18T17:29:24;145.95;;;65.80;;
55025;SDS011;40925;45.666;18.994;2022-12-18T17:40:10;314.25;;;93.40;;
55025;SDS011;40925;45.666;18.994;2022-12-18T17:42:41;249.65;;;84.30;;
55025;SDS011;40925;45.666;18.994;2022-12-18T17:54:02;195.48;;;76.10;;
55025;SDS011;40925;45.666;18.994;2022-12-18T17:56:58;207.88;;;82.93;;
55025;SDS011;40925;45.666;18.994;2022-12-18T18:05:59;178.35;;;69.03;;
55025;SDS011;40925;45.666;18.994;2022-12-18T18:08:32;138.05;;;53.45;;
55025;SDS011;40925;45.666;18.994;2022-12-18T18:17:31;125.30;;;44.65;;
55025;SDS011;40925;45.666;18.994;2022-12-18T18:20:12;118.85;;;43.53;;
55025;SDS011;40925;45.666;18.994;2022-12-18T18:23:06;118.15;;;42.67;;
55025;SDS011;40925;45.666;18.994;2022-12-18T18:26:07;115.60;;;40.45;;
55025;SDS011;40925;45.666;18.994;2022-12-18T18:34:13;157.65;;;58.35;;
55025;SDS011;40925;45.666;18.994;2022-12-18T18:36:49;146.25;;;53.55;;
55025;SDS011;40925;45.666;18.994;2022-12-18T18:39:29;130.23;;;47.35;;
55025;SDS011;40925;45.666;18.994;2022-12-18T19:08:22;153.75;;;50.42;;
55025;SDS011;40925;45.666;18.994;2022-12-18T19:11:00;183.02;;;57.65;;
55025;SDS011;40925;45.666;18.994;2022-12-18T19:14:02;223.05;;;68.93;;
55025;SDS011;40925;45.666;18.994;2022-12-18T19:16:39;210.30;;;67.25;;
55025;SDS011;40925;45.666;18.994;2022-12-18T19:19:18;194.57;;;66.45;;
55025;SDS011;40925;45.666;18.994;2022-12-18T19:22:08;197.87;;;66.10;;
55025;SDS011;40925;45.666;18.994;2022-12-18T19:24:48;217.52;;;66.18;;
55025;SDS011;40925;45.666;18.994;2022-12-18T19:27:17;172.48;;;54.05;;
55025;SDS011;40925;45.666;18.994;2022-12-18T19:29:47;272.65;;;70.82;;
55025;SDS011;40925;45.666;18.994;2022-12-18T19:32:33;205.50;;;61.45;;
55025;SDS011;40925;45.666;18.994;2022-12-18T19:35:04;212.35;;;62.40;;
55025;SDS011;40925;45.666;18.994;2022-12-18T19:37:41;274.63;;;69.38;;
55025;SDS011;40925;45.666;18.994;2022-12-18T19:40:27;187.25;;;53.72;;
55025;SDS011;40925;45.666;18.994;2022-12-18T19:42:53;158.07;;;50.17;;
55025;SDS011;40925;45.666;18.994;2022-12-18T19:45:20;146.52;;;49.63;;
55025;SDS011;40925;45.666;18.994;2022-12-18T19:47:47;169.45;;;50.25;;
55025;SDS011;40925;45.666;18.994;2022-12-18T19:50:21;358.42;;;88.40;;
55025;SDS011;40925;45.666;18.994;2022-12-18T19:52:57;350.27;;;89.13;;
55025;SDS011;40925;45.666;18.994;2022-12-18T19:55:27;386.77;;;101.72;;
55025;SDS011;40925;45.666;18.994;2022-12-18T19:57:57;217.07;;;62.38;;
55025;SDS011;40925;45.666;18.994;2022-12-18T20:05:53;177.32;;;63.80;;
55025;SDS011;40925;45.666;18.994;2022-12-18T20:08:30;176.98;;;60.55;;
55025;SDS011;40925;45.666;18.994;2022-12-18T20:10:56;180.20;;;64.55;;
55025;SDS011;40925;45.666;18.994;2022-12-18T20:13:22;161.07;;;54.80;;
55025;SDS011;40925;45.666;18.994;2022-12-18T20:18:55;161.60;;;51.85;;
55025;SDS011;40925;45.666;18.994;2022-12-18T20:21:23;149.05;;;51.53;;
55025;SDS011;40925;45.666;18.994;2022-12-18T20:23:50;160.55;;;52.33;;
55025;SDS011;40925;45.666;18.994;2022-12-18T20:26:21;169.30;;;55.15;;
55025;SDS011;40925;45.666;18.994;2022-12-18T20:28:53;171.30;;;55.30;;
55025;SDS011;40925;45.666;18.994;2022-12-18T20:31:21;186.15;;;58.17;;
55025;SDS011;40925;45.666;18.994;2022-12-18T20:33:48;210.38;;;67.40;;
55025;SDS011;40925;45.666;18.994;2022-12-18T20:36:18;213.15;;;78.40;;
55025;SDS011;40925;45.666;18.994;2022-12-18T20:38:51;201.75;;;62.47;;
55025;SDS011;40925;45.666;18.994;2022-12-18T20:41:24;205.65;;;61.30;;
55025;SDS011;40925;45.666;18.994;2022-12-18T20:43:51;233.38;;;69.18;;
55025;SDS011;40925;45.666;18.994;2022-12-18T20:46:18;220.32;;;65.63;;
55025;SDS011;40925;45.666;18.994;2022-12-18T20:48:46;232.90;;;69.28;;
55025;SDS011;40925;45.666;18.994;2022-12-18T20:51:15;217.90;;;62.85;;
55025;SDS011;40925;45.666;18.994;2022-12-18T20:53:45;228.82;;;68.55;;
55025;SDS011;40925;45.666;18.994;2022-12-18T20:56:16;224.45;;;65.93;;
55025;SDS011;40925;45.666;18.994;2022-12-18T20:59:02;210.77;;;59.33;;
55025;SDS011;40925;45.666;18.994;2022-12-18T21:04:52;212.05;;;53.50;;
55025;SDS011;40925;45.666;18.994;2022-12-18T21:07:22;223.30;;;56.45;;
55025;SDS011;40925;45.666;18.994;2022-12-18T21:09:52;216.82;;;58.17;;
55025;SDS011;40925;45.666;18.994;2022-12-18T21:12:21;206.63;;;55.60;;
55025;SDS011;40925;45.666;18.994;2022-12-18T21:15:02;216.93;;;54.88;;
55025;SDS011;40925;45.666;18.994;2022-12-18T21:17:34;210.23;;;51.25;;
55025;SDS011;40925;45.666;18.994;2022-12-18T21:20:16;205.57;;;50.83;;
55025;SDS011;40925;45.666;18.994;2022-12-18T21:22:45;204.88;;;47.90;;
55025;SDS011;40925;45.666;18.994;2022-12-18T21:25:11;197.15;;;48.30;;
55025;SDS011;40925;45.666;18.994;2022-12-18T21:27:40;225.00;;;50.70;;
55025;SDS011;40925;45.666;18.994;2022-12-18T21:30:07;253.02;;;51.22;;
55025;SDS011;40925;45.666;18.994;2022-12-18T21:32:33;212.02;;;48.13;;
55025;SDS011;40925;45.666;18.994;2022-12-18T21:35:03;248.98;;;51.40;;
55025;SDS011;40925;45.666;18.994;2022-12-18T21:37:30;211.63;;;48.08;;
55025;SDS011;40925;45.666;18.994;2022-12-18T21:39:57;331.23;;;48.92;;
55025;SDS011;40925;45.666;18.994;2022-12-18T21:42:26;322.02;;;52.85;;
55025;SDS011;40925;45.666;18.994;2022-12-18T21:48:15;252.07;;;49.10;;
55025;SDS011;40925;45.666;18.994;2022-12-18T21:50:41;367.25;;;53.33;;
55025;SDS011;40925;45.666;18.994;2022-12-18T21:53:11;553.85;;;63.90;;
55025;SDS011;40925;45.666;18.994;2022-12-18T21:55:39;638.95;;;64.00;;
55025;SDS011;40925;45.666;18.994;2022-12-18T21:58:24;414.75;;;61.65;;
55025;SDS011;40925;45.666;18.994;2022-12-18T22:00:53;523.25;;;59.88;;
55025;SDS011;40925;45.666;18.994;2022-12-18T22:03:20;780.83;;;66.32;;
55025;SDS011;40925;45.666;18.994;2022-12-18T22:05:49;633.45;;;61.25;;
55025;SDS011;40925;45.666;18.994;2022-12-18T22:08:15;988.03;;;71.80;;
55025;SDS011;40925;45.666;18.994;2022-12-18T22:10:44;865.63;;;88.25;;
55025;SDS011;40925;45.666;18.994;2022-12-18T22:13:11;660.42;;;69.70;;
55025;SDS011;40925;45.666;18.994;2022-12-18T22:15:56;499.67;;;68.95;;
55025;SDS011;40925;45.666;18.994;2022-12-18T22:18:31;1092.90;;;74.30;;
55025;SDS011;40925;45.666;18.994;2022-12-18T22:21:01;1250.55;;;77.97;;
55025;SDS011;40925;45.666;18.994;2022-12-18T22:23:30;1167.18;;;74.43;;
55025;SDS011;40925;45.666;18.994;2022-12-18T22:25:56;857.25;;;78.82;;
55025;SDS011;40925;45.666;18.994;2022-12-18T22:28:22;1152.65;;;75.47;;
55025;SDS011;40925;45.666;18.994;2022-12-18T22:31:09;955.28;;;71.47;;
55025;SDS011;40925;45.666;18.994;2022-12-18T22:33:35;728.03;;;61.00;;
55025;SDS011;40925;45.666;18.994;2022-12-18T22:36:05;768.42;;;69.10;;
55025;SDS011;40925;45.666;18.994;2022-12-18T22:38:33;1021.13;;;76.35;;
55025;SDS011;40925;45.666;18.994;2022-12-18T22:41:00;1115.85;;;79.40;;
55025;SDS011;40925;45.666;18.994;2022-12-18T22:43:29;1422.80;;;85.13;;
55025;SDS011;40925;45.666;18.994;2022-12-18T22:45:56;894.65;;;69.35;;
55025;SDS011;40925;45.666;18.994;2022-12-18T22:48:27;596.63;;;60.10;;
55025;SDS011;40925;45.666;18.994;2022-12-18T22:50:55;700.50;;;61.78;;
55025;SDS011;40925;45.666;18.994;2022-12-18T22:53:22;899.92;;;70.53;;
55025;SDS011;40925;45.666;18.994;2022-12-18T22:55:48;799.25;;;77.32;;
55025;SDS011;40925;45.666;18.994;2022-12-18T22:58:14;637.97;;;71.57;;
55025;SDS011;40925;45.666;18.994;2022-12-18T23:04:02;895.05;;;87.85;;
55025;SDS011;40925;45.666;18.994;2022-12-18T23:06:28;908.95;;;72.32;;
55025;SDS011;40925;45.666;18.994;2022-12-18T23:08:54;1483.20;;;100.22;;
55025;SDS011;40925;45.666;18.994;2022-12-18T23:11:24;804.33;;;63.92;;
55025;SDS011;40925;45.666;18.994;2022-12-18T23:13:51;1073.00;;;75.75;;
55025;SDS011;40925;45.666;18.994;2022-12-18T23:16:18;436.00;;;54.70;;
55025;SDS011;40925;45.666;18.994;2022-12-18T23:18:45;664.65;;;61.80;;
55025;SDS011;40925;45.666;18.994;2022-12-18T23:21:12;643.08;;;62.88;;
55025;SDS011;40925;45.666;18.994;2022-12-18T23:23:39;842.75;;;87.40;;
55025;SDS011;40925;45.666;18.994;2022-12-18T23:26:06;926.78;;;65.80;;
55025;SDS011;40925;45.666;18.994;2022-12-18T23:28:34;657.47;;;67.68;;
55025;SDS011;40925;45.666;18.994;2022-12-18T23:31:03;880.00;;;116.13;;
55025;SDS011;40925;45.666;18.994;2022-12-18T23:33:38;889.90;;;95.78;;
55025;SDS011;40925;45.666;18.994;2022-12-18T23:36:04;873.83;;;107.55;;
55025;SDS011;40925;45.666;18.994;2022-12-18T23:38:31;1163.70;;;91.45;;
55025;SDS011;40925;45.666;18.994;2022-12-18T23:40:58;511.83;;;78.30;;
55025;SDS011;40925;45.666;18.994;2022-12-18T23:43:31;567.13;;;69.85;;
55025;SDS011;40925;45.666;18.994;2022-12-18T23:45:56;676.80;;;87.13;;
55025;SDS011;40925;45.666;18.994;2022-12-18T23:48:22;564.67;;;78.50;;
55025;SDS011;40925;45.666;18.994;2022-12-18T23:50:48;803.33;;;87.53;;
55025;SDS011;40925;45.666;18.994;2022-12-18T23:53:14;585.25;;;57.40;;
55025;SDS011;40925;45.666;18.994;2022-12-18T23:55:41;402.17;;;54.85;;
55025;SDS011;40925;45.666;18.994;2022-12-18T23:58:17;413.75;;;54.67;;
